createdAt,value
2023-09-17T00:01:17.467Z,6.32
2023-09-17T00:03:44.395Z,6.82
2023-09-17T00:06:11.233Z,7.07
2023-09-17T00:08:39.165Z,6.60
2023-09-17T00:11:05.832Z,6.32
2023-09-17T00:13:33.030Z,6.75
2023-09-17T00:16:00.815Z,7.00
2023-09-17T00:18:28.138Z,6.30
2023-09-17T00:20:54.870Z,7.32
2023-09-17T00:23:21.680Z,7.35
2023-09-17T00:25:48.519Z,6.55
2023-09-17T00:28:15.393Z,6.18
2023-09-17T00:30:42.254Z,7.05
2023-09-17T00:33:09.131Z,6.90
2023-09-17T00:35:35.967Z,6.38
2023-09-17T00:38:03.100Z,7.40
2023-09-17T00:40:31.427Z,8.02
2023-09-17T00:42:58.314Z,6.55
2023-09-17T00:45:25.140Z,8.25
2023-09-17T00:47:52.245Z,7.22
2023-09-17T00:50:19.201Z,7.07
2023-09-17T00:52:46.693Z,8.00
2023-09-17T00:55:13.745Z,6.80
2023-09-17T00:57:46.854Z,6.45
2023-09-17T01:00:14.559Z,6.47
2023-09-17T01:02:43.892Z,6.65
2023-09-17T01:05:11.104Z,7.30
2023-09-17T01:07:39.533Z,6.65
2023-09-17T01:10:07.856Z,6.28
2023-09-17T01:12:35.434Z,6.80
2023-09-17T01:15:07.318Z,6.55
2023-09-17T01:17:35.736Z,6.85
2023-09-17T01:20:08.606Z,7.35
2023-09-17T01:22:42.890Z,7.70
2023-09-17T01:25:37.509Z,7.13
2023-09-17T01:28:07.097Z,7.38
2023-09-17T01:30:33.900Z,6.60
2023-09-17T01:33:02.206Z,8.15
2023-09-17T01:35:31.545Z,7.40
2023-09-17T01:38:02.754Z,7.80
2023-09-17T01:40:29.686Z,7.38
2023-09-17T01:42:58.224Z,7.60
2023-09-17T01:45:28.261Z,7.60
2023-09-17T01:47:56.227Z,7.32
2023-09-17T01:50:25.169Z,7.75
2023-09-17T01:52:53.237Z,7.55
2023-09-17T01:55:20.008Z,8.00
2023-09-17T01:57:46.725Z,7.65
2023-09-17T02:00:18.424Z,7.07
2023-09-17T02:02:51.077Z,7.57
2023-09-17T02:05:18.381Z,7.60
2023-09-17T02:07:45.899Z,6.60
2023-09-17T02:10:13.482Z,7.53
2023-09-17T02:12:40.583Z,7.80
2023-09-17T02:15:10.682Z,8.27
2023-09-17T02:17:37.814Z,7.78
2023-09-17T02:20:09.654Z,7.55
2023-09-17T02:22:36.466Z,7.25
2023-09-17T02:25:04.164Z,7.63
2023-09-17T02:27:30.907Z,8.30
2023-09-17T02:29:57.595Z,7.90
2023-09-17T02:32:24.319Z,7.32
2023-09-17T02:34:51.070Z,7.00
2023-09-17T02:37:17.805Z,8.07
2023-09-17T02:39:44.645Z,8.30
2023-09-17T02:42:13.172Z,7.07
2023-09-17T02:44:39.959Z,7.55
2023-09-17T02:47:06.808Z,6.57
2023-09-17T02:49:33.783Z,5.93
2023-09-17T02:52:00.554Z,7.03
2023-09-17T02:54:28.060Z,6.65
2023-09-17T02:56:55.250Z,7.00
2023-09-17T02:59:22.059Z,7.72
2023-09-17T03:01:48.975Z,7.93
2023-09-17T03:04:15.895Z,6.63
2023-09-17T03:06:42.613Z,7.05
2023-09-17T03:09:11.967Z,8.40
2023-09-17T03:11:38.936Z,8.07
2023-09-17T03:14:05.635Z,7.18
2023-09-17T03:16:32.502Z,7.57
2023-09-17T03:18:59.264Z,6.82
2023-09-17T03:21:26.050Z,8.63
2023-09-17T03:23:53.222Z,7.63
2023-09-17T03:26:20.109Z,7.43
2023-09-17T03:28:46.958Z,7.55
2023-09-17T03:31:13.879Z,7.80
2023-09-17T03:33:40.689Z,8.02
2023-09-17T03:36:07.489Z,7.95
2023-09-17T03:38:34.513Z,7.50
2023-09-17T03:41:01.810Z,7.72
2023-09-17T03:43:29.078Z,7.72
2023-09-17T03:45:55.797Z,7.30
2023-09-17T03:48:22.956Z,6.10
2023-09-17T03:50:50.618Z,8.73
2023-09-17T03:53:17.680Z,8.43
2023-09-17T03:55:46.214Z,7.68
2023-09-17T03:58:13.672Z,8.23
2023-09-17T04:00:40.455Z,7.68
2023-09-17T04:03:09.699Z,8.73
2023-09-17T04:05:36.783Z,7.32
2023-09-17T04:08:04.533Z,7.82
2023-09-17T04:10:31.651Z,7.85
2023-09-17T04:12:58.388Z,7.88
2023-09-17T04:15:25.163Z,9.20
2023-09-17T04:17:52.548Z,8.75
2023-09-17T04:20:20.630Z,7.60
2023-09-17T04:22:50.110Z,8.75
2023-09-17T04:25:20.124Z,7.28
2023-09-17T04:27:48.227Z,7.78
2023-09-17T04:30:17.426Z,7.70
2023-09-17T04:32:45.641Z,7.78
2023-09-17T04:35:20.128Z,7.15
2023-09-17T04:37:49.299Z,8.68
2023-09-17T04:40:16.831Z,8.48
2023-09-17T04:42:44.687Z,7.85
2023-09-17T04:45:12.447Z,8.80
2023-09-17T04:47:41.275Z,7.10
2023-09-17T04:50:11.282Z,7.70
2023-09-17T04:52:38.398Z,8.70
2023-09-17T04:55:06.602Z,8.38
2023-09-17T04:57:33.398Z,9.15
2023-09-17T05:00:08.701Z,7.85
2023-09-17T05:02:35.514Z,8.27
2023-09-17T05:05:02.332Z,7.78
2023-09-17T05:07:29.157Z,8.73
2023-09-17T05:09:55.857Z,8.07
2023-09-17T05:12:22.580Z,8.45
2023-09-17T05:14:49.290Z,9.48
2023-09-17T05:17:16.815Z,8.70
2023-09-17T05:19:43.612Z,8.00
2023-09-17T05:22:10.371Z,7.60
2023-09-17T05:24:37.078Z,7.80
2023-09-17T05:27:04.564Z,8.98
2023-09-17T05:29:31.433Z,8.55
2023-09-17T05:31:58.241Z,8.45
2023-09-17T05:34:25.219Z,8.85
2023-09-17T05:36:51.938Z,7.00
2023-09-17T05:39:18.658Z,7.43
2023-09-17T05:41:45.372Z,7.07
2023-09-17T05:44:12.158Z,8.82
2023-09-17T05:46:38.949Z,7.85
2023-09-17T05:49:05.708Z,8.40
2023-09-17T05:51:32.573Z,6.90
2023-09-17T05:53:59.315Z,8.15
2023-09-17T05:56:26.063Z,7.38
2023-09-17T05:58:52.784Z,8.27
2023-09-17T06:01:19.593Z,8.70
2023-09-17T06:03:46.389Z,7.43
2023-09-17T06:06:13.122Z,8.68
2023-09-17T06:08:40.145Z,7.32
2023-09-17T06:11:06.843Z,7.80
2023-09-17T06:13:33.776Z,7.95
2023-09-17T06:16:00.767Z,7.28
2023-09-17T06:18:29.951Z,7.82
2023-09-17T06:20:57.809Z,7.88
2023-09-17T06:23:24.518Z,8.30
2023-09-17T06:25:51.320Z,8.57
2023-09-17T06:28:18.396Z,7.90
2023-09-17T06:30:46.443Z,7.90
2023-09-17T06:33:13.225Z,8.20
2023-09-17T06:35:39.988Z,7.85
2023-09-17T06:38:06.675Z,8.35
2023-09-17T06:40:33.467Z,7.20
2023-09-17T06:43:00.420Z,8.00
2023-09-17T06:45:27.138Z,8.35
2023-09-17T06:47:53.944Z,7.45
2023-09-17T06:50:20.660Z,6.20
2023-09-17T06:52:47.395Z,8.05
2023-09-17T06:55:14.149Z,8.18
2023-09-17T06:57:40.857Z,6.97
2023-09-17T07:00:08.304Z,8.02
2023-09-17T07:02:35.083Z,7.53
2023-09-17T07:05:04.871Z,6.72
2023-09-17T07:07:31.938Z,7.28
2023-09-17T07:09:58.753Z,7.00
2023-09-17T07:12:25.528Z,6.93
2023-09-17T07:14:52.221Z,6.97
2023-09-17T07:17:19.013Z,6.70
2023-09-17T07:19:45.937Z,7.10
2023-09-17T07:22:16.171Z,6.53
2023-09-17T07:24:43.480Z,7.10
2023-09-17T07:27:10.224Z,8.00
2023-09-17T07:29:36.993Z,7.90
2023-09-17T07:32:04.737Z,6.60
2023-09-17T07:34:32.428Z,7.50
2023-09-17T07:37:01.283Z,6.75
2023-09-17T07:39:28.283Z,10.13
2023-09-17T07:41:54.986Z,7.28
2023-09-17T07:44:21.907Z,6.05
2023-09-17T07:46:48.803Z,7.80
2023-09-17T07:49:15.593Z,7.53
2023-09-17T07:51:42.337Z,6.75
2023-09-17T07:54:09.876Z,6.45
2023-09-17T07:56:36.615Z,6.93
2023-09-17T07:59:04.530Z,7.05
2023-09-17T08:01:33.184Z,6.32
2023-09-17T08:04:00.362Z,7.32
2023-09-17T08:06:27.230Z,6.38
2023-09-17T08:08:53.993Z,6.10
2023-09-17T08:11:20.968Z,6.25
2023-09-17T08:13:49.317Z,6.55
2023-09-17T08:16:16.471Z,7.18
2023-09-17T08:18:43.489Z,6.20
2023-09-17T08:21:10.377Z,6.20
2023-09-17T08:23:37.127Z,5.53
2023-09-17T08:26:05.953Z,5.03
2023-09-17T08:28:32.720Z,6.40
2023-09-17T08:30:59.551Z,6.47
2023-09-17T08:33:26.515Z,6.65
2023-09-17T08:35:53.443Z,6.32
2023-09-17T08:38:20.393Z,6.15
2023-09-17T08:40:48.419Z,5.68
2023-09-17T08:43:16.762Z,6.70
2023-09-17T08:45:43.752Z,5.03
2023-09-17T08:48:10.645Z,5.95
2023-09-17T08:50:38.412Z,5.63
2023-09-17T08:53:08.682Z,6.18
2023-09-17T08:55:36.204Z,6.60
2023-09-17T08:58:25.610Z,4.93
2023-09-17T09:00:57.397Z,5.72
2023-09-17T09:03:26.780Z,5.45
2023-09-17T09:05:58.204Z,5.60
2023-09-17T09:08:26.247Z,5.45
2023-09-17T09:10:53.324Z,6.05
2023-09-17T09:13:22.267Z,5.68
2023-09-17T09:15:49.505Z,5.68
2023-09-17T09:18:16.471Z,6.65
2023-09-17T09:20:43.789Z,5.70
2023-09-17T09:23:10.774Z,6.20
2023-09-17T09:25:37.669Z,6.38
2023-09-17T09:28:05.088Z,5.32
2023-09-17T09:30:31.926Z,5.95
2023-09-17T09:32:58.854Z,6.10
2023-09-17T09:35:26.524Z,6.40
2023-09-17T09:37:54.833Z,5.22
2023-09-17T09:40:22.954Z,5.78
2023-09-17T09:42:50.452Z,6.05
2023-09-17T09:45:17.927Z,5.97
2023-09-17T09:47:52.193Z,5.95
2023-09-17T09:50:26.719Z,5.05
2023-09-17T09:52:54.754Z,5.32
2023-09-17T09:55:26.112Z,6.43
2023-09-17T09:57:53.593Z,5.53
2023-09-17T10:00:28.198Z,6.53
2023-09-17T10:02:56.471Z,5.65
2023-09-17T10:05:38.441Z,5.53
2023-09-17T10:08:06.055Z,6.07
2023-09-17T10:10:33.302Z,5.95
2023-09-17T10:13:02.231Z,5.68
2023-09-17T10:15:29.103Z,5.20
2023-09-17T10:17:58.121Z,5.18
2023-09-17T10:20:27.632Z,4.65
2023-09-17T10:22:56.198Z,5.18
2023-09-17T10:25:24.664Z,5.63
2023-09-17T10:27:55.173Z,6.05
2023-09-17T10:32:51.852Z,5.10
2023-09-17T10:35:18.842Z,5.20
2023-09-17T10:37:47.615Z,5.53
2023-09-17T10:40:14.523Z,4.95
2023-09-17T10:42:41.252Z,5.90
2023-09-17T10:45:09.399Z,6.10
2023-09-17T10:47:39.770Z,5.97
2023-09-17T10:50:07.148Z,6.07
2023-09-17T10:52:37.306Z,6.35
2023-09-17T10:55:09.211Z,6.07
2023-09-17T10:57:42.019Z,6.93
2023-09-17T11:00:14.845Z,5.88
2023-09-17T11:02:51.912Z,5.07
2023-09-17T11:05:24.110Z,7.25
2023-09-17T11:07:56.167Z,6.47
2023-09-17T11:10:31.636Z,6.72
2023-09-17T11:15:26.467Z,6.00
2023-09-17T11:18:01.183Z,6.70
2023-09-17T11:20:28.140Z,5.97
2023-09-17T11:22:54.857Z,6.28
2023-09-17T11:25:38.717Z,5.20
2023-09-17T11:28:13.953Z,5.82
2023-09-17T11:30:59.930Z,6.47
2023-09-17T11:33:30.689Z,6.13
2023-09-17T11:38:26.262Z,6.60
2023-09-17T11:41:12.685Z,5.43
2023-09-17T11:43:44.755Z,6.07
2023-09-17T11:46:13.025Z,5.35
2023-09-17T11:48:43.234Z,6.30
2023-09-17T11:51:26.947Z,7.05
2023-09-17T11:54:02.383Z,6.40
2023-09-17T11:56:33.951Z,6.20
2023-09-17T11:59:04.932Z,5.88
2023-09-17T12:01:42.888Z,6.05
2023-09-17T12:04:11.464Z,5.78
2023-09-17T12:06:41.092Z,5.93
2023-09-17T12:09:22.643Z,5.43
2023-09-17T12:11:49.809Z,5.97
2023-09-17T12:14:17.938Z,5.80
2023-09-17T12:16:47.479Z,7.22
2023-09-17T12:19:18.289Z,5.70
2023-09-17T12:21:50.326Z,7.13
2023-09-17T12:24:21.638Z,6.55
2023-09-17T12:27:10.068Z,6.40
2023-09-17T12:29:38.079Z,7.45
2023-09-17T12:32:06.023Z,5.47
2023-09-17T12:34:37.008Z,6.43
2023-09-17T12:37:06.827Z,6.68
2023-09-17T12:39:33.819Z,6.65
2023-09-17T12:42:00.664Z,6.35
2023-09-17T12:44:28.207Z,7.07
2023-09-17T12:46:55.202Z,7.68
2023-09-17T12:49:23.229Z,6.93
2023-09-17T12:51:52.734Z,5.78
2023-09-17T12:54:22.565Z,6.65
2023-09-17T12:56:50.395Z,7.15
2023-09-17T12:59:17.568Z,5.30
2023-09-17T13:01:59.035Z,5.90
2023-09-17T13:04:35.845Z,5.47
2023-09-17T13:07:05.382Z,7.28
2023-09-17T13:09:35.335Z,6.70
2023-09-17T13:12:02.469Z,6.47
2023-09-17T13:14:31.528Z,6.90
2023-09-17T13:16:58.512Z,5.55
2023-09-17T13:19:25.918Z,7.10
2023-09-17T13:21:52.711Z,7.53
2023-09-17T13:24:19.910Z,6.03
2023-09-17T13:26:46.611Z,6.00
2023-09-17T13:29:13.367Z,6.78
2023-09-17T13:31:42.050Z,5.57
2023-09-17T13:34:11.704Z,7.13
2023-09-17T13:36:38.868Z,7.00
2023-09-17T13:39:05.784Z,7.32
2023-09-17T13:41:32.654Z,6.78
2023-09-17T13:43:59.531Z,6.10
2023-09-17T13:46:26.332Z,6.97
2023-09-17T13:48:53.318Z,6.80
2023-09-17T13:51:20.285Z,7.32
2023-09-17T13:53:47.021Z,7.50
2023-09-17T13:56:13.875Z,8.52
2023-09-17T13:58:40.797Z,7.07
2023-09-17T14:01:07.673Z,6.57
2023-09-17T14:03:34.484Z,7.35
2023-09-17T14:06:01.311Z,7.47
2023-09-17T14:08:30.898Z,7.57
2023-09-17T14:10:57.686Z,7.22
2023-09-17T14:13:24.478Z,7.40
2023-09-17T14:15:51.329Z,6.88
2023-09-17T14:18:18.219Z,7.25
2023-09-17T14:20:45.080Z,6.75
2023-09-17T14:23:11.867Z,7.20
2023-09-17T14:25:38.663Z,8.20
2023-09-17T14:28:06.058Z,7.70
2023-09-17T14:30:35.181Z,7.35
2023-09-17T14:33:02.179Z,7.65
2023-09-17T14:35:29.312Z,7.40
2023-09-17T14:37:56.221Z,8.40
2023-09-17T14:40:23.279Z,8.10
2023-09-17T14:42:50.038Z,6.68
2023-09-17T14:45:16.848Z,8.32
2023-09-17T14:47:44.613Z,13.05
2023-09-17T14:50:12.879Z,7.95
2023-09-17T14:52:42.627Z,8.48
2023-09-17T14:55:09.732Z,7.65
2023-09-17T14:57:37.979Z,8.13
2023-09-17T15:00:06.043Z,8.10
2023-09-17T15:02:33.436Z,8.07
2023-09-17T15:05:01.663Z,6.63
2023-09-17T15:07:28.810Z,6.38
2023-09-17T15:09:55.523Z,7.78
2023-09-17T15:12:22.232Z,7.45
2023-09-17T15:14:48.983Z,7.90
2023-09-17T15:17:15.793Z,8.38
2023-09-17T15:19:42.647Z,7.55
2023-09-17T15:22:09.450Z,7.15
2023-09-17T15:24:36.131Z,8.43
2023-09-17T15:27:02.890Z,7.22
2023-09-17T15:29:30.137Z,6.90
2023-09-17T15:31:57.234Z,7.72
2023-09-17T15:34:25.548Z,8.15
2023-09-17T15:36:53.168Z,7.63
2023-09-17T15:39:20.381Z,7.57
2023-09-17T15:41:47.209Z,8.25
2023-09-17T15:44:16.180Z,7.15
2023-09-17T15:46:43.823Z,7.93
2023-09-17T15:49:10.911Z,7.95
2023-09-17T15:51:37.863Z,7.32
2023-09-17T15:54:05.228Z,8.30
2023-09-17T15:56:32.077Z,7.68
2023-09-17T15:58:58.951Z,6.65
2023-09-17T16:01:25.866Z,7.35
2023-09-17T16:03:52.925Z,6.10
2023-09-17T16:06:24.612Z,7.53
2023-09-17T16:08:53.344Z,7.20
2023-09-17T16:11:20.368Z,6.32
2023-09-17T16:13:47.173Z,6.90
2023-09-17T16:16:14.106Z,8.63
2023-09-17T16:18:40.833Z,7.50
2023-09-17T16:21:07.675Z,8.13
2023-09-17T16:23:34.508Z,8.60
2023-09-17T16:26:01.331Z,7.97
2023-09-17T16:28:29.675Z,7.70
2023-09-17T16:30:56.456Z,8.02
2023-09-17T16:33:23.242Z,7.80
2023-09-17T16:35:50.013Z,8.25
2023-09-17T16:38:16.834Z,8.38
2023-09-17T16:40:45.989Z,7.70
2023-09-17T16:43:15.782Z,7.82
2023-09-17T16:45:44.103Z,7.50
2023-09-17T16:48:11.872Z,8.43
2023-09-17T16:50:38.632Z,8.07
2023-09-17T16:53:05.834Z,7.82
2023-09-17T16:55:32.754Z,6.63
2023-09-17T16:57:59.486Z,7.80
2023-09-17T17:00:26.306Z,8.45
2023-09-17T17:02:53.757Z,7.68
2023-09-17T17:05:20.750Z,8.73
2023-09-17T17:07:47.657Z,8.20
2023-09-17T17:10:14.798Z,9.10
2023-09-17T17:12:41.869Z,7.55
2023-09-17T17:15:09.501Z,7.50
2023-09-17T17:17:36.419Z,8.98
2023-09-17T17:20:05.090Z,8.35
2023-09-17T17:22:43.176Z,8.60
2023-09-17T17:25:10.649Z,9.55
2023-09-17T17:27:37.408Z,8.52
2023-09-17T17:30:07.703Z,7.05
2023-09-17T17:32:34.519Z,8.55
2023-09-17T17:35:01.489Z,7.80
2023-09-17T17:37:28.263Z,9.18
2023-09-17T17:39:59.449Z,9.35
2023-09-17T17:42:27.622Z,8.63
2023-09-17T17:44:55.737Z,7.20
2023-09-17T17:47:22.869Z,8.75
2023-09-17T17:49:52.000Z,9.65
2023-09-17T17:52:22.203Z,8.25
2023-09-17T17:54:49.787Z,9.07
2023-09-17T17:57:18.720Z,9.20
2023-09-17T17:59:46.426Z,8.13
2023-09-17T18:02:14.484Z,10.50
2023-09-17T18:04:41.447Z,10.43
2023-09-17T18:07:08.354Z,9.43
2023-09-17T18:09:35.082Z,8.55
2023-09-17T18:12:03.823Z,9.45
2023-09-17T18:14:31.395Z,8.93
2023-09-17T18:16:58.275Z,8.20
2023-09-17T18:19:25.059Z,7.60
2023-09-17T18:21:51.825Z,9.93
2023-09-17T18:24:18.584Z,7.57
2023-09-17T18:26:45.341Z,9.13
2023-09-17T18:29:12.368Z,9.10
2023-09-17T18:31:39.169Z,9.27
2023-09-17T18:34:05.864Z,10.32
2023-09-17T18:36:33.898Z,9.55
2023-09-17T18:39:01.225Z,11.40
2023-09-17T18:41:27.971Z,10.40
2023-09-17T18:43:55.036Z,10.18
2023-09-17T18:46:22.126Z,11.43
2023-09-17T18:48:48.805Z,8.95
2023-09-17T18:51:15.957Z,4.95
2023-09-17T18:53:42.844Z,5.00
2023-09-17T18:56:09.704Z,4.10
2023-09-17T18:58:36.460Z,4.53
2023-09-17T19:01:04.319Z,3.80
2023-09-17T19:03:31.093Z,3.17
2023-09-17T19:06:00.070Z,2.75
2023-09-17T19:08:26.931Z,2.92
2023-09-17T19:10:54.115Z,2.75
2023-09-17T19:13:20.932Z,2.60
2023-09-17T19:15:48.222Z,2.45
2023-09-17T19:18:15.842Z,2.50
2023-09-17T19:20:44.076Z,4.00
2023-09-17T19:23:11.008Z,3.47
2023-09-17T19:25:37.813Z,2.88
2023-09-17T19:28:07.575Z,2.63
2023-09-17T19:30:34.435Z,2.47
2023-09-17T19:33:01.197Z,2.17
2023-09-17T19:35:28.006Z,2.03
2023-09-17T19:37:54.732Z,2.00
2023-09-17T19:40:21.651Z,1.85
2023-09-17T19:42:48.327Z,1.67
2023-09-17T19:45:15.086Z,1.80
2023-09-17T19:47:43.685Z,1.50
2023-09-17T19:50:10.902Z,1.50
2023-09-17T19:52:37.645Z,1.52
2023-09-17T19:55:05.281Z,1.58
2023-09-17T19:57:32.049Z,1.50
2023-09-17T20:00:00.507Z,1.40
2023-09-17T20:02:27.363Z,1.50
2023-09-17T20:04:54.230Z,1.23
2023-09-17T20:07:20.982Z,1.27
2023-09-17T20:09:47.778Z,1.50
2023-09-17T20:12:14.734Z,1.40
2023-09-17T20:14:41.461Z,1.30
2023-09-17T20:17:08.179Z,1.27
2023-09-17T20:19:37.653Z,1.70
2023-09-17T20:22:04.700Z,1.70
2023-09-17T20:24:32.337Z,1.17
2023-09-17T20:26:59.172Z,1.00
2023-09-17T20:29:25.948Z,1.27
2023-09-17T20:31:55.884Z,1.50
2023-09-17T20:34:23.885Z,1.20
2023-09-17T20:36:51.152Z,1.48
2023-09-17T20:39:18.131Z,1.73
2023-09-17T20:41:46.049Z,2.63
2023-09-17T20:44:13.879Z,2.13
2023-09-17T20:46:41.626Z,2.50
2023-09-17T20:49:10.275Z,2.40
2023-09-17T20:51:37.048Z,3.28
2023-09-17T20:54:03.934Z,3.28
2023-09-17T20:56:30.973Z,3.45
2023-09-17T20:58:59.011Z,3.00
2023-09-17T21:01:25.810Z,2.63
2023-09-17T21:03:54.137Z,2.88
2023-09-17T21:06:21.392Z,2.45
2023-09-17T21:08:48.281Z,2.95
2023-09-17T21:11:17.127Z,2.03
2023-09-17T21:13:43.967Z,2.20
2023-09-17T21:16:10.922Z,3.65
2023-09-17T21:18:37.823Z,3.10
2023-09-17T21:21:04.793Z,2.08
2023-09-17T21:23:31.774Z,2.50
2023-09-17T21:25:58.646Z,2.50
2023-09-17T21:28:25.456Z,2.17
2023-09-17T21:30:52.338Z,1.75
2023-09-17T21:33:19.208Z,1.90
2023-09-17T21:35:46.053Z,1.88
2023-09-17T21:38:12.841Z,1.90
2023-09-17T21:40:39.801Z,1.88
2023-09-17T21:43:06.532Z,1.80
2023-09-17T21:45:33.295Z,2.45
2023-09-17T21:48:01.641Z,1.60
2023-09-17T21:50:28.403Z,1.92
2023-09-17T21:52:55.231Z,2.13
2023-09-17T21:55:21.980Z,2.35
2023-09-17T21:57:49.146Z,2.38
2023-09-17T22:00:24.852Z,2.60
2023-09-17T22:02:52.725Z,2.90
2023-09-17T22:05:23.268Z,2.30
2023-09-17T22:07:50.307Z,2.38
2023-09-17T22:10:18.014Z,2.40
2023-09-17T22:12:45.079Z,2.13
2023-09-17T22:15:11.852Z,2.58
2023-09-17T22:17:38.683Z,1.80
2023-09-17T22:20:16.172Z,1.98
2023-09-17T22:22:43.794Z,2.25
2023-09-17T22:25:11.559Z,2.72
2023-09-17T22:27:38.758Z,3.03
2023-09-17T22:30:07.979Z,2.63
2023-09-17T22:32:35.748Z,3.85
2023-09-17T22:35:02.992Z,2.75
2023-09-17T22:37:30.078Z,2.80
2023-09-17T22:39:57.010Z,3.17
2023-09-17T22:42:23.771Z,3.53
2023-09-17T22:44:50.577Z,2.90
2023-09-17T22:47:17.441Z,3.58
2023-09-17T22:49:44.856Z,3.65
2023-09-17T22:52:11.639Z,3.17
2023-09-17T22:54:39.258Z,3.88
2023-09-17T22:57:06.190Z,4.07
2023-09-17T22:59:33.114Z,3.17
2023-09-17T23:02:00.009Z,4.28
2023-09-17T23:04:26.798Z,3.50
2023-09-17T23:06:55.528Z,3.13
2023-09-17T23:09:22.301Z,3.05
2023-09-17T23:11:49.069Z,3.63
2023-09-17T23:14:15.814Z,3.65
2023-09-17T23:16:42.837Z,2.85
2023-09-17T23:19:09.692Z,4.18
2023-09-17T23:21:37.429Z,3.72
2023-09-17T23:24:05.392Z,18.88
2023-09-17T23:26:33.024Z,4.22
2023-09-17T23:29:01.129Z,4.57
2023-09-17T23:31:28.607Z,3.80
2023-09-17T23:33:55.707Z,3.00
2023-09-17T23:36:24.885Z,2.85
2023-09-17T23:38:51.821Z,2.67
2023-09-17T23:41:18.783Z,2.53
2023-09-17T23:43:45.729Z,2.60
2023-09-17T23:46:12.593Z,2.30
2023-09-17T23:48:39.353Z,2.28
2023-09-17T23:51:06.123Z,2.22
2023-09-17T23:53:33.224Z,2.10
2023-09-17T23:56:00.782Z,1.95
2023-09-17T23:58:27.555Z,2.05
